sensor_id;sensor_type;location;lat;lon;timestamp;temperature;humidity
51839;DHT22;37886;53.174;6.368;2022-11-20T00:00:56;-1.10;99.90
51839;DHT22;37886;53.174;6.368;2022-11-20T00:03:22;-1.10;99.90
51839;DHT22;37886;53.174;6.368;2022-11-20T00:05:48;-1.00;99.90
51839;DHT22;37886;53.174;6.368;2022-11-20T00:08:13;-1.00;99.90
51839;DHT22;37886;53.174;6.368;2022-11-20T00:10:40;-1.00;99.90
51839;DHT22;37886;53.174;6.368;2022-11-20T00:13:07;-1.00;99.90
51839;DHT22;37886;53.174;6.368;2022-11-20T00:15:33;-1.00;99.90
51839;DHT22;37886;53.174;6.368;2022-11-20T00:17:59;-1.00;99.90
51839;DHT22;37886;53.174;6.368;2022-11-20T00:20:24;-0.90;99.90
51839;DHT22;37886;53.174;6.368;2022-11-20T00:22:51;-0.90;99.90
51839;DHT22;37886;53.174;6.368;2022-11-20T00:25:16;-0.80;99.90
51839;DHT22;37886;53.174;6.368;2022-11-20T00:27:42;-0.70;99.90
51839;DHT22;37886;53.174;6.368;2022-11-20T00:30:08;-0.70;99.90
51839;DHT22;37886;53.174;6.368;2022-11-20T00:32:34;-0.70;99.90
51839;DHT22;37886;53.174;6.368;2022-11-20T00:35:00;-0.70;99.90
51839;DHT22;37886;53.174;6.368;2022-11-20T00:37:26;-0.70;99.90
51839;DHT22;37886;53.174;6.368;2022-11-20T00:39:51;-0.70;99.90
51839;DHT22;37886;53.174;6.368;2022-11-20T00:42:17;-0.70;99.90
51839;DHT22;37886;53.174;6.368;2022-11-20T00:44:43;-0.60;99.90
51839;DHT22;37886;53.174;6.368;2022-11-20T00:47:08;-0.70;99.90
51839;DHT22;37886;53.174;6.368;2022-11-20T00:49:34;-0.60;99.90
51839;DHT22;37886;53.174;6.368;2022-11-20T00:52:00;-0.60;99.90
51839;DHT22;37886;53.174;6.368;2022-11-20T00:54:25;-0.60;99.90
51839;DHT22;37886;53.174;6.368;2022-11-20T00:56:53;-0.60;99.90
51839;DHT22;37886;53.174;6.368;2022-11-20T00:59:19;-0.50;99.90
51839;DHT22;37886;53.174;6.368;2022-11-20T01:01:45;-0.50;99.90
51839;DHT22;37886;53.174;6.368;2022-11-20T01:04:11;-0.50;99.90
51839;DHT22;37886;53.174;6.368;2022-11-20T01:06:38;-0.50;99.90
51839;DHT22;37886;53.174;6.368;2022-11-20T01:09:07;-0.50;99.90
51839;DHT22;37886;53.174;6.368;2022-11-20T01:11:36;-0.50;99.90
51839;DHT22;37886;53.174;6.368;2022-11-20T01:14:05;-0.50;99.90
51839;DHT22;37886;53.174;6.368;2022-11-20T01:16:39;-0.40;99.90
51839;DHT22;37886;53.174;6.368;2022-11-20T01:19:07;-0.40;99.90
51839;DHT22;37886;53.174;6.368;2022-11-20T01:21:35;-0.40;99.90
51839;DHT22;37886;53.174;6.368;2022-11-20T01:24:02;-0.50;99.90
51839;DHT22;37886;53.174;6.368;2022-11-20T01:26:34;-0.40;99.90
51839;DHT22;37886;53.174;6.368;2022-11-20T01:29:01;-0.40;99.90
51839;DHT22;37886;53.174;6.368;2022-11-20T01:31:32;-0.40;99.90
51839;DHT22;37886;53.174;6.368;2022-11-20T01:34:00;-0.40;99.90
51839;DHT22;37886;53.174;6.368;2022-11-20T01:36:29;-0.40;99.90
51839;DHT22;37886;53.174;6.368;2022-11-20T01:38:56;-0.30;99.90
51839;DHT22;37886;53.174;6.368;2022-11-20T01:41:24;-0.30;99.90
51839;DHT22;37886;53.174;6.368;2022-11-20T01:44:10;-0.30;99.90
51839;DHT22;37886;53.174;6.368;2022-11-20T01:46:38;-0.30;99.90
51839;DHT22;37886;53.174;6.368;2022-11-20T01:49:15;-0.30;99.90
51839;DHT22;37886;53.174;6.368;2022-11-20T01:54:14;-0.30;99.90
51839;DHT22;37886;53.174;6.368;2022-11-20T01:56:43;-0.30;99.90
51839;DHT22;37886;53.174;6.368;2022-11-20T01:59:10;-0.30;99.90
51839;DHT22;37886;53.174;6.368;2022-11-20T02:01:37;-0.30;99.90
51839;DHT22;37886;53.174;6.368;2022-11-20T02:04:05;-0.30;99.90
51839;DHT22;37886;53.174;6.368;2022-11-20T02:06:36;-0.30;99.90
51839;DHT22;37886;53.174;6.368;2022-11-20T02:09:05;-0.30;99.90
51839;DHT22;37886;53.174;6.368;2022-11-20T02:11:31;-0.30;99.90
51839;DHT22;37886;53.174;6.368;2022-11-20T02:13:57;-0.30;99.90
51839;DHT22;37886;53.174;6.368;2022-11-20T02:16:39;-0.40;99.90
51839;DHT22;37886;53.174;6.368;2022-11-20T02:19:17;-0.30;99.90
51839;DHT22;37886;53.174;6.368;2022-11-20T02:22:00;-0.30;99.90
51839;DHT22;37886;53.174;6.368;2022-11-20T02:24:27;-0.30;99.90
51839;DHT22;37886;53.174;6.368;2022-11-20T02:30:04;-0.30;99.90
51839;DHT22;37886;53.174;6.368;2022-11-20T02:32:34;-0.20;99.90
51839;DHT22;37886;53.174;6.368;2022-11-20T02:37:47;-0.30;99.90
51839;DHT22;37886;53.174;6.368;2022-11-20T02:40:13;-0.20;99.90
51839;DHT22;37886;53.174;6.368;2022-11-20T02:42:39;-0.30;99.90
51839;DHT22;37886;53.174;6.368;2022-11-20T02:45:05;-0.20;99.90
51839;DHT22;37886;53.174;6.368;2022-11-20T02:47:31;-0.20;99.90
51839;DHT22;37886;53.174;6.368;2022-11-20T02:49:57;-0.20;99.90
51839;DHT22;37886;53.174;6.368;2022-11-20T02:52:23;-0.20;99.90
51839;DHT22;37886;53.174;6.368;2022-11-20T02:54:49;-0.20;99.90
51839;DHT22;37886;53.174;6.368;2022-11-20T02:57:15;-0.20;99.90
51839;DHT22;37886;53.174;6.368;2022-11-20T02:59:40;-0.20;99.90
51839;DHT22;37886;53.174;6.368;2022-11-20T03:02:06;-0.20;99.90
51839;DHT22;37886;53.174;6.368;2022-11-20T03:04:32;-0.10;99.90
51839;DHT22;37886;53.174;6.368;2022-11-20T03:06:58;-0.10;99.90
51839;DHT22;37886;53.174;6.368;2022-11-20T03:09:23;-0.10;99.90
51839;DHT22;37886;53.174;6.368;2022-11-20T03:11:49;-0.10;99.90
51839;DHT22;37886;53.174;6.368;2022-11-20T03:14:14;0.00;99.90
51839;DHT22;37886;53.174;6.368;2022-11-20T03:16:40;-0.10;99.90
51839;DHT22;37886;53.174;6.368;2022-11-20T03:19:06;0.00;99.90
51839;DHT22;37886;53.174;6.368;2022-11-20T03:21:35;0.00;99.90
51839;DHT22;37886;53.174;6.368;2022-11-20T03:24:02;-0.10;99.90
51839;DHT22;37886;53.174;6.368;2022-11-20T03:26:28;0.00;99.90
51839;DHT22;37886;53.174;6.368;2022-11-20T03:28:58;0.00;99.90
51839;DHT22;37886;53.174;6.368;2022-11-20T03:31:36;0.00;99.90
51839;DHT22;37886;53.174;6.368;2022-11-20T03:34:03;0.00;99.90
51839;DHT22;37886;53.174;6.368;2022-11-20T03:36:29;0.00;99.90
51839;DHT22;37886;53.174;6.368;2022-11-20T03:38:57;0.00;99.90
51839;DHT22;37886;53.174;6.368;2022-11-20T03:41:30;0.00;99.90
51839;DHT22;37886;53.174;6.368;2022-11-20T03:43:58;0.00;99.90
51839;DHT22;37886;53.174;6.368;2022-11-20T03:46:25;0.00;99.90
51839;DHT22;37886;53.174;6.368;2022-11-20T03:48:53;-0.10;99.90
51839;DHT22;37886;53.174;6.368;2022-11-20T03:51:24;0.00;99.90
51839;DHT22;37886;53.174;6.368;2022-11-20T03:53:51;0.00;99.90
51839;DHT22;37886;53.174;6.368;2022-11-20T03:56:19;-0.10;99.90
51839;DHT22;37886;53.174;6.368;2022-11-20T03:58:45;-0.10;99.90
51839;DHT22;37886;53.174;6.368;2022-11-20T04:01:17;-0.10;99.90
51839;DHT22;37886;53.174;6.368;2022-11-20T04:03:44;0.00;99.90
51839;DHT22;37886;53.174;6.368;2022-11-20T04:06:17;0.00;99.90
51839;DHT22;37886;53.174;6.368;2022-11-20T04:08:43;0.00;99.90
51839;DHT22;37886;53.174;6.368;2022-11-20T04:13:45;0.00;99.90
51839;DHT22;37886;53.174;6.368;2022-11-20T04:16:11;0.10;99.90
51839;DHT22;37886;53.174;6.368;2022-11-20T04:18:36;0.10;99.90
51839;DHT22;37886;53.174;6.368;2022-11-20T04:21:03;0.20;99.90
51839;DHT22;37886;53.174;6.368;2022-11-20T04:23:29;0.20;99.90
51839;DHT22;37886;53.174;6.368;2022-11-20T04:26:00;0.20;99.90
51839;DHT22;37886;53.174;6.368;2022-11-20T04:28:25;0.20;99.90
51839;DHT22;37886;53.174;6.368;2022-11-20T04:30:51;0.20;99.90
51839;DHT22;37886;53.174;6.368;2022-11-20T04:33:16;0.30;99.90
51839;DHT22;37886;53.174;6.368;2022-11-20T04:35:48;0.30;99.90
51839;DHT22;37886;53.174;6.368;2022-11-20T04:38:14;0.30;99.90
51839;DHT22;37886;53.174;6.368;2022-11-20T04:40:40;0.30;99.90
51839;DHT22;37886;53.174;6.368;2022-11-20T04:43:05;0.20;99.90
51839;DHT22;37886;53.174;6.368;2022-11-20T04:45:31;0.30;99.90
51839;DHT22;37886;53.174;6.368;2022-11-20T04:47:57;0.30;99.90
51839;DHT22;37886;53.174;6.368;2022-11-20T04:50:22;0.30;99.90
51839;DHT22;37886;53.174;6.368;2022-11-20T04:52:48;0.20;99.90
51839;DHT22;37886;53.174;6.368;2022-11-20T04:55:13;0.30;99.90
51839;DHT22;37886;53.174;6.368;2022-11-20T04:57:39;0.30;99.90
51839;DHT22;37886;53.174;6.368;2022-11-20T05:00:05;0.20;99.90
51839;DHT22;37886;53.174;6.368;2022-11-20T05:02:31;0.20;99.90
51839;DHT22;37886;53.174;6.368;2022-11-20T05:04:57;0.20;99.90
51839;DHT22;37886;53.174;6.368;2022-11-20T05:07:23;0.30;99.90
51839;DHT22;37886;53.174;6.368;2022-11-20T05:09:48;0.20;99.90
51839;DHT22;37886;53.174;6.368;2022-11-20T05:12:14;0.30;99.90
51839;DHT22;37886;53.174;6.368;2022-11-20T05:14:40;0.30;99.90
51839;DHT22;37886;53.174;6.368;2022-11-20T05:17:05;0.30;99.90
51839;DHT22;37886;53.174;6.368;2022-11-20T05:19:31;0.40;99.90
51839;DHT22;37886;53.174;6.368;2022-11-20T05:21:56;0.40;99.90
51839;DHT22;37886;53.174;6.368;2022-11-20T05:24:22;0.40;99.90
51839;DHT22;37886;53.174;6.368;2022-11-20T05:26:48;0.40;99.90
51839;DHT22;37886;53.174;6.368;2022-11-20T05:29:14;0.40;99.90
51839;DHT22;37886;53.174;6.368;2022-11-20T05:31:40;0.40;99.90
51839;DHT22;37886;53.174;6.368;2022-11-20T05:34:06;0.40;99.90
51839;DHT22;37886;53.174;6.368;2022-11-20T05:36:33;0.30;99.90
51839;DHT22;37886;53.174;6.368;2022-11-20T05:38:59;0.40;99.90
51839;DHT22;37886;53.174;6.368;2022-11-20T05:41:25;0.40;99.90
51839;DHT22;37886;53.174;6.368;2022-11-20T05:43:51;0.40;99.90
51839;DHT22;37886;53.174;6.368;2022-11-20T05:46:19;0.40;99.90
51839;DHT22;37886;53.174;6.368;2022-11-20T05:48:46;0.50;99.90
51839;DHT22;37886;53.174;6.368;2022-11-20T05:51:14;0.50;99.90
51839;DHT22;37886;53.174;6.368;2022-11-20T05:53:43;0.40;99.90
51839;DHT22;37886;53.174;6.368;2022-11-20T05:56:15;0.50;99.90
51839;DHT22;37886;53.174;6.368;2022-11-20T05:58:41;0.40;99.90
51839;DHT22;37886;53.174;6.368;2022-11-20T06:03:42;0.40;99.90
51839;DHT22;37886;53.174;6.368;2022-11-20T06:06:09;0.40;99.90
51839;DHT22;37886;53.174;6.368;2022-11-20T06:08:34;0.50;99.90
51839;DHT22;37886;53.174;6.368;2022-11-20T06:11:08;0.40;99.90
51839;DHT22;37886;53.174;6.368;2022-11-20T06:13:38;0.40;99.90
51839;DHT22;37886;53.174;6.368;2022-11-20T06:16:06;0.40;99.90
51839;DHT22;37886;53.174;6.368;2022-11-20T06:18:32;0.40;99.90
51839;DHT22;37886;53.174;6.368;2022-11-20T06:21:02;0.40;99.90
51839;DHT22;37886;53.174;6.368;2022-11-20T06:23:30;0.40;99.90
51839;DHT22;37886;53.174;6.368;2022-11-20T06:25:56;0.40;99.90
51839;DHT22;37886;53.174;6.368;2022-11-20T06:28:24;0.40;99.90
51839;DHT22;37886;53.174;6.368;2022-11-20T06:30:50;0.40;99.90
51839;DHT22;37886;53.174;6.368;2022-11-20T06:33:15;0.40;99.90
51839;DHT22;37886;53.174;6.368;2022-11-20T06:35:41;0.40;99.90
51839;DHT22;37886;53.174;6.368;2022-11-20T06:38:07;0.40;99.90
51839;DHT22;37886;53.174;6.368;2022-11-20T06:40:32;0.40;99.90
51839;DHT22;37886;53.174;6.368;2022-11-20T06:42:58;0.40;99.90
51839;DHT22;37886;53.174;6.368;2022-11-20T06:45:23;0.40;99.90
51839;DHT22;37886;53.174;6.368;2022-11-20T06:47:49;0.40;99.90
51839;DHT22;37886;53.174;6.368;2022-11-20T06:50:15;0.40;99.90
51839;DHT22;37886;53.174;6.368;2022-11-20T06:52:41;0.40;99.90
51839;DHT22;37886;53.174;6.368;2022-11-20T06:55:06;0.40;99.90
51839;DHT22;37886;53.174;6.368;2022-11-20T06:57:32;0.40;99.90
51839;DHT22;37886;53.174;6.368;2022-11-20T06:59:58;0.50;99.90
51839;DHT22;37886;53.174;6.368;2022-11-20T07:02:24;0.50;99.90
51839;DHT22;37886;53.174;6.368;2022-11-20T07:04:49;0.40;99.90
51839;DHT22;37886;53.174;6.368;2022-11-20T07:07:15;0.50;99.90
51839;DHT22;37886;53.174;6.368;2022-11-20T07:09:44;0.40;99.90
51839;DHT22;37886;53.174;6.368;2022-11-20T07:12:09;0.50;99.90
51839;DHT22;37886;53.174;6.368;2022-11-20T07:14:35;0.40;99.90
51839;DHT22;37886;53.174;6.368;2022-11-20T07:17:00;0.50;99.90
51839;DHT22;37886;53.174;6.368;2022-11-20T07:19:26;0.50;99.90
51839;DHT22;37886;53.174;6.368;2022-11-20T07:21:52;0.60;99.90
51839;DHT22;37886;53.174;6.368;2022-11-20T07:24:17;0.50;99.90
51839;DHT22;37886;53.174;6.368;2022-11-20T07:26:46;0.50;99.90
51839;DHT22;37886;53.174;6.368;2022-11-20T07:29:15;0.60;99.90
51839;DHT22;37886;53.174;6.368;2022-11-20T07:31:41;0.50;99.90
51839;DHT22;37886;53.174;6.368;2022-11-20T07:34:06;0.50;99.90
51839;DHT22;37886;53.174;6.368;2022-11-20T07:36:32;0.60;99.90
51839;DHT22;37886;53.174;6.368;2022-11-20T07:39:01;0.60;99.90
51839;DHT22;37886;53.174;6.368;2022-11-20T07:41:29;0.60;99.90
51839;DHT22;37886;53.174;6.368;2022-11-20T07:43:55;0.60;99.90
51839;DHT22;37886;53.174;6.368;2022-11-20T07:46:21;0.60;99.90
51839;DHT22;37886;53.174;6.368;2022-11-20T07:48:46;0.60;99.90
51839;DHT22;37886;53.174;6.368;2022-11-20T07:51:12;0.60;99.90
51839;DHT22;37886;53.174;6.368;2022-11-20T07:53:39;0.60;99.90
51839;DHT22;37886;53.174;6.368;2022-11-20T07:56:05;0.60;99.90
51839;DHT22;37886;53.174;6.368;2022-11-20T07:58:31;0.60;99.90
51839;DHT22;37886;53.174;6.368;2022-11-20T08:01:02;0.60;99.90
51839;DHT22;37886;53.174;6.368;2022-11-20T08:03:28;0.60;99.90
51839;DHT22;37886;53.174;6.368;2022-11-20T08:05:58;0.60;99.90
51839;DHT22;37886;53.174;6.368;2022-11-20T08:08:25;0.60;99.90
51839;DHT22;37886;53.174;6.368;2022-11-20T08:10:50;0.70;99.90
51839;DHT22;37886;53.174;6.368;2022-11-20T08:13:16;0.70;99.90
51839;DHT22;37886;53.174;6.368;2022-11-20T08:16:00;0.70;99.90
51839;DHT22;37886;53.174;6.368;2022-11-20T08:18:26;0.60;99.90
51839;DHT22;37886;53.174;6.368;2022-11-20T08:20:52;0.60;99.90
51839;DHT22;37886;53.174;6.368;2022-11-20T08:23:17;0.60;99.90
51839;DHT22;37886;53.174;6.368;2022-11-20T08:25:43;0.60;99.90
51839;DHT22;37886;53.174;6.368;2022-11-20T08:28:09;0.60;99.90
51839;DHT22;37886;53.174;6.368;2022-11-20T08:30:36;0.60;99.90
51839;DHT22;37886;53.174;6.368;2022-11-20T08:33:06;0.60;99.90
51839;DHT22;37886;53.174;6.368;2022-11-20T08:35:37;0.60;99.90
51839;DHT22;37886;53.174;6.368;2022-11-20T08:38:06;0.60;99.90
51839;DHT22;37886;53.174;6.368;2022-11-20T08:40:32;0.60;99.90
51839;DHT22;37886;53.174;6.368;2022-11-20T08:42:58;0.70;99.90
51839;DHT22;37886;53.174;6.368;2022-11-20T08:45:26;0.70;99.90
51839;DHT22;37886;53.174;6.368;2022-11-20T08:47:51;0.70;99.90
51839;DHT22;37886;53.174;6.368;2022-11-20T08:50:17;0.70;99.90
51839;DHT22;37886;53.174;6.368;2022-11-20T08:52:43;0.70;99.90
51839;DHT22;37886;53.174;6.368;2022-11-20T08:55:10;0.80;99.90
51839;DHT22;37886;53.174;6.368;2022-11-20T08:57:36;0.70;99.90
51839;DHT22;37886;53.174;6.368;2022-11-20T09:00:04;0.70;99.90
51839;DHT22;37886;53.174;6.368;2022-11-20T09:02:31;0.70;99.90
51839;DHT22;37886;53.174;6.368;2022-11-20T09:05:00;0.80;99.90
51839;DHT22;37886;53.174;6.368;2022-11-20T09:07:28;0.80;99.90
51839;DHT22;37886;53.174;6.368;2022-11-20T09:09:53;0.80;99.90
51839;DHT22;37886;53.174;6.368;2022-11-20T09:12:19;0.90;99.90
51839;DHT22;37886;53.174;6.368;2022-11-20T09:14:45;0.90;99.90
51839;DHT22;37886;53.174;6.368;2022-11-20T09:17:11;1.00;99.90
51839;DHT22;37886;53.174;6.368;2022-11-20T09:19:39;1.00;99.90
51839;DHT22;37886;53.174;6.368;2022-11-20T09:22:05;1.10;99.90
51839;DHT22;37886;53.174;6.368;2022-11-20T09:24:30;1.10;99.90
51839;DHT22;37886;53.174;6.368;2022-11-20T09:26:57;1.10;99.90
51839;DHT22;37886;53.174;6.368;2022-11-20T09:29:22;1.10;99.90
51839;DHT22;37886;53.174;6.368;2022-11-20T09:31:48;1.30;99.90
51839;DHT22;37886;53.174;6.368;2022-11-20T09:34:14;1.50;99.90
51839;DHT22;37886;53.174;6.368;2022-11-20T09:36:39;1.50;99.90
51839;DHT22;37886;53.174;6.368;2022-11-20T09:39:05;1.50;99.90
51839;DHT22;37886;53.174;6.368;2022-11-20T09:41:52;1.40;99.90
51839;DHT22;37886;53.174;6.368;2022-11-20T09:56:01;1.20;99.90
51839;DHT22;37886;53.174;6.368;2022-11-20T09:58:47;1.30;99.90
51839;DHT22;37886;53.174;6.368;2022-11-20T10:01:17;1.40;99.90
51839;DHT22;37886;53.174;6.368;2022-11-20T10:04:12;1.50;99.90
51839;DHT22;37886;53.174;6.368;2022-11-20T10:09:33;1.70;99.90
51839;DHT22;37886;53.174;6.368;2022-11-20T10:22:59;2.10;99.90
51839;DHT22;37886;53.174;6.368;2022-11-20T10:28:16;1.80;99.90
51839;DHT22;37886;53.174;6.368;2022-11-20T10:30:48;1.90;99.90
51839;DHT22;37886;53.174;6.368;2022-11-20T10:33:22;1.80;99.90
51839;DHT22;37886;53.174;6.368;2022-11-20T10:35:54;1.90;99.90
51839;DHT22;37886;53.174;6.368;2022-11-20T10:38:46;1.90;99.90
51839;DHT22;37886;53.174;6.368;2022-11-20T10:41:32;1.90;99.90
51839;DHT22;37886;53.174;6.368;2022-11-20T10:44:14;1.80;99.90
51839;DHT22;37886;53.174;6.368;2022-11-20T10:46:43;1.80;99.90
51839;DHT22;37886;53.174;6.368;2022-11-20T10:49:15;1.80;99.90
51839;DHT22;37886;53.174;6.368;2022-11-20T10:58:04;1.60;99.90
51839;DHT22;37886;53.174;6.368;2022-11-20T11:00:35;1.60;99.90
51839;DHT22;37886;53.174;6.368;2022-11-20T11:03:01;1.60;99.90
51839;DHT22;37886;53.174;6.368;2022-11-20T11:08:03;1.70;99.90
51839;DHT22;37886;53.174;6.368;2022-11-20T11:10:39;1.80;99.90
51839;DHT22;37886;53.174;6.368;2022-11-20T11:13:07;1.80;99.90
51839;DHT22;37886;53.174;6.368;2022-11-20T11:15:39;1.70;99.90
51839;DHT22;37886;53.174;6.368;2022-11-20T11:18:09;1.80;99.90
51839;DHT22;37886;53.174;6.368;2022-11-20T11:20:35;1.80;99.90
51839;DHT22;37886;53.174;6.368;2022-11-20T11:23:02;1.90;99.90
51839;DHT22;37886;53.174;6.368;2022-11-20T11:25:32;1.90;99.90
51839;DHT22;37886;53.174;6.368;2022-11-20T11:28:20;2.00;99.90
51839;DHT22;37886;53.174;6.368;2022-11-20T11:30:46;2.10;99.90
51839;DHT22;37886;53.174;6.368;2022-11-20T11:33:28;2.10;99.90
51839;DHT22;37886;53.174;6.368;2022-11-20T11:36:04;2.20;99.90
51839;DHT22;37886;53.174;6.368;2022-11-20T11:38:41;2.20;99.90
51839;DHT22;37886;53.174;6.368;2022-11-20T11:41:21;2.30;99.90
51839;DHT22;37886;53.174;6.368;2022-11-20T11:43:56;2.30;99.90
51839;DHT22;37886;53.174;6.368;2022-11-20T11:46:53;2.40;99.90
51839;DHT22;37886;53.174;6.368;2022-11-20T11:49:20;2.70;99.90
51839;DHT22;37886;53.174;6.368;2022-11-20T11:52:08;2.80;99.90
51839;DHT22;37886;53.174;6.368;2022-11-20T11:55:09;2.90;99.90
51839;DHT22;37886;53.174;6.368;2022-11-20T11:57:56;3.10;99.90
51839;DHT22;37886;53.174;6.368;2022-11-20T12:00:23;3.20;99.90
51839;DHT22;37886;53.174;6.368;2022-11-20T12:02:59;3.70;99.90
51839;DHT22;37886;53.174;6.368;2022-11-20T12:06:30;4.10;99.90
51839;DHT22;37886;53.174;6.368;2022-11-20T12:12:17;3.60;99.90
51839;DHT22;37886;53.174;6.368;2022-11-20T12:16:52;3.90;99.90
51839;DHT22;37886;53.174;6.368;2022-11-20T12:19:19;4.30;99.90
51839;DHT22;37886;53.174;6.368;2022-11-20T12:30:27;4.30;99.90
51839;DHT22;37886;53.174;6.368;2022-11-20T12:33:18;4.20;99.90
51839;DHT22;37886;53.174;6.368;2022-11-20T12:36:09;4.00;99.90
51839;DHT22;37886;53.174;6.368;2022-11-20T12:45:02;3.80;99.90
51839;DHT22;37886;53.174;6.368;2022-11-20T12:58:56;4.00;99.90
51839;DHT22;37886;53.174;6.368;2022-11-20T13:01:32;4.30;99.90
51839;DHT22;37886;53.174;6.368;2022-11-20T13:07:10;4.10;99.90
51839;DHT22;37886;53.174;6.368;2022-11-20T13:09:42;3.90;99.90
51839;DHT22;37886;53.174;6.368;2022-11-20T13:14:40;3.80;99.90
51839;DHT22;37886;53.174;6.368;2022-11-20T13:19:56;3.90;99.90
51839;DHT22;37886;53.174;6.368;2022-11-20T13:22:47;3.90;99.90
51839;DHT22;37886;53.174;6.368;2022-11-20T13:25:30;4.20;99.90
51839;DHT22;37886;53.174;6.368;2022-11-20T13:27:59;4.30;99.90
51839;DHT22;37886;53.174;6.368;2022-11-20T13:30:26;4.20;99.90
51839;DHT22;37886;53.174;6.368;2022-11-20T13:32:54;4.10;99.90
51839;DHT22;37886;53.174;6.368;2022-11-20T13:35:32;3.90;99.90
51839;DHT22;37886;53.174;6.368;2022-11-20T13:38:10;3.90;99.90
51839;DHT22;37886;53.174;6.368;2022-11-20T13:40:49;3.90;99.90
51839;DHT22;37886;53.174;6.368;2022-11-20T13:43:42;3.90;99.90
51839;DHT22;37886;53.174;6.368;2022-11-20T13:46:09;4.00;99.90
51839;DHT22;37886;53.174;6.368;2022-11-20T13:48:46;4.00;99.90
51839;DHT22;37886;53.174;6.368;2022-11-20T13:51:27;4.00;99.90
51839;DHT22;37886;53.174;6.368;2022-11-20T13:59:36;3.80;99.90
51839;DHT22;37886;53.174;6.368;2022-11-20T14:02:11;3.80;99.90
51839;DHT22;37886;53.174;6.368;2022-11-20T14:04:45;3.70;99.90
51839;DHT22;37886;53.174;6.368;2022-11-20T14:07:12;3.70;99.90
51839;DHT22;37886;53.174;6.368;2022-11-20T14:09:37;3.60;99.90
51839;DHT22;37886;53.174;6.368;2022-11-20T14:12:12;3.50;99.90
51839;DHT22;37886;53.174;6.368;2022-11-20T14:14:48;3.50;99.90
51839;DHT22;37886;53.174;6.368;2022-11-20T14:17:35;3.50;99.90
51839;DHT22;37886;53.174;6.368;2022-11-20T14:20:07;3.50;99.90
51839;DHT22;37886;53.174;6.368;2022-11-20T14:22:36;3.50;99.90
51839;DHT22;37886;53.174;6.368;2022-11-20T14:25:06;3.40;99.90
51839;DHT22;37886;53.174;6.368;2022-11-20T14:27:40;3.40;99.90
51839;DHT22;37886;53.174;6.368;2022-11-20T14:32:39;3.30;99.90
51839;DHT22;37886;53.174;6.368;2022-11-20T14:35:10;3.20;99.90
51839;DHT22;37886;53.174;6.368;2022-11-20T14:37:38;3.20;99.90
51839;DHT22;37886;53.174;6.368;2022-11-20T14:40:27;3.10;99.90
51839;DHT22;37886;53.174;6.368;2022-11-20T14:42:53;3.20;99.90
51839;DHT22;37886;53.174;6.368;2022-11-20T14:45:19;3.20;99.90
51839;DHT22;37886;53.174;6.368;2022-11-20T14:47:45;3.20;99.90
51839;DHT22;37886;53.174;6.368;2022-11-20T14:50:22;3.20;99.90
51839;DHT22;37886;53.174;6.368;2022-11-20T14:52:54;3.10;99.90
51839;DHT22;37886;53.174;6.368;2022-11-20T14:58:02;2.90;99.90
51839;DHT22;37886;53.174;6.368;2022-11-20T15:00:30;2.80;99.90
51839;DHT22;37886;53.174;6.368;2022-11-20T15:02:56;2.80;99.90
51839;DHT22;37886;53.174;6.368;2022-11-20T15:05:25;2.70;99.90
51839;DHT22;37886;53.174;6.368;2022-11-20T15:08:11;2.60;99.90
51839;DHT22;37886;53.174;6.368;2022-11-20T15:10:38;2.50;99.90
51839;DHT22;37886;53.174;6.368;2022-11-20T15:15:56;2.50;99.90
51839;DHT22;37886;53.174;6.368;2022-11-20T15:18:23;2.40;99.90
51839;DHT22;37886;53.174;6.368;2022-11-20T15:20:50;2.30;99.90
51839;DHT22;37886;53.174;6.368;2022-11-20T15:23:17;2.40;99.90
51839;DHT22;37886;53.174;6.368;2022-11-20T15:25:44;2.30;99.90
51839;DHT22;37886;53.174;6.368;2022-11-20T15:28:31;2.30;99.90
51839;DHT22;37886;53.174;6.368;2022-11-20T15:30:59;2.30;99.90
51839;DHT22;37886;53.174;6.368;2022-11-20T15:33:29;2.30;99.90
51839;DHT22;37886;53.174;6.368;2022-11-20T15:36:01;2.30;99.90
51839;DHT22;37886;53.174;6.368;2022-11-20T15:38:27;2.30;99.90
51839;DHT22;37886;53.174;6.368;2022-11-20T15:40:53;2.40;99.90
51839;DHT22;37886;53.174;6.368;2022-11-20T15:43:19;2.40;99.90
51839;DHT22;37886;53.174;6.368;2022-11-20T15:45:47;2.40;99.90
51839;DHT22;37886;53.174;6.368;2022-11-20T15:48:18;2.30;99.90
51839;DHT22;37886;53.174;6.368;2022-11-20T15:53:40;2.30;99.90
51839;DHT22;37886;53.174;6.368;2022-11-20T15:56:07;2.30;99.90
51839;DHT22;37886;53.174;6.368;2022-11-20T15:58:34;2.30;99.90
51839;DHT22;37886;53.174;6.368;2022-11-20T16:01:00;2.30;99.90
51839;DHT22;37886;53.174;6.368;2022-11-20T16:03:25;2.30;99.90
51839;DHT22;37886;53.174;6.368;2022-11-20T16:05:51;2.20;99.90
51839;DHT22;37886;53.174;6.368;2022-11-20T16:08:17;2.20;99.90
51839;DHT22;37886;53.174;6.368;2022-11-20T16:10:42;2.10;99.90
51839;DHT22;37886;53.174;6.368;2022-11-20T16:13:13;2.10;99.90
51839;DHT22;37886;53.174;6.368;2022-11-20T16:15:59;2.20;99.90
51839;DHT22;37886;53.174;6.368;2022-11-20T16:18:26;2.10;99.90
51839;DHT22;37886;53.174;6.368;2022-11-20T16:20:54;2.10;99.90
51839;DHT22;37886;53.174;6.368;2022-11-20T16:23:20;2.10;99.90
51839;DHT22;37886;53.174;6.368;2022-11-20T16:25:47;2.10;99.90
51839;DHT22;37886;53.174;6.368;2022-11-20T16:28:13;2.00;99.90
51839;DHT22;37886;53.174;6.368;2022-11-20T16:30:39;1.90;99.90
51839;DHT22;37886;53.174;6.368;2022-11-20T16:33:17;1.90;99.90
51839;DHT22;37886;53.174;6.368;2022-11-20T16:35:44;1.90;99.90
51839;DHT22;37886;53.174;6.368;2022-11-20T16:38:09;1.90;99.90
51839;DHT22;37886;53.174;6.368;2022-11-20T16:40:35;1.90;99.90
51839;DHT22;37886;53.174;6.368;2022-11-20T16:43:11;2.00;99.90
51839;DHT22;37886;53.174;6.368;2022-11-20T16:45:42;1.90;99.90
51839;DHT22;37886;53.174;6.368;2022-11-20T16:48:12;1.90;99.90
51839;DHT22;37886;53.174;6.368;2022-11-20T16:50:45;1.80;99.90
51839;DHT22;37886;53.174;6.368;2022-11-20T16:53:11;1.80;99.90
51839;DHT22;37886;53.174;6.368;2022-11-20T16:55:37;1.80;99.90
51839;DHT22;37886;53.174;6.368;2022-11-20T16:58:03;1.80;99.90
51839;DHT22;37886;53.174;6.368;2022-11-20T17:00:29;1.90;99.90
51839;DHT22;37886;53.174;6.368;2022-11-20T17:02:55;1.90;99.90
51839;DHT22;37886;53.174;6.368;2022-11-20T17:05:30;1.80;99.90
51839;DHT22;37886;53.174;6.368;2022-11-20T17:08:06;1.80;99.90
51839;DHT22;37886;53.174;6.368;2022-11-20T17:10:32;1.80;99.90
51839;DHT22;37886;53.174;6.368;2022-11-20T17:13:00;1.80;99.90
51839;DHT22;37886;53.174;6.368;2022-11-20T17:15:27;1.80;99.90
51839;DHT22;37886;53.174;6.368;2022-11-20T17:18:01;1.80;99.90
51839;DHT22;37886;53.174;6.368;2022-11-20T17:20:51;1.80;99.90
51839;DHT22;37886;53.174;6.368;2022-11-20T17:23:17;1.80;99.90
51839;DHT22;37886;53.174;6.368;2022-11-20T17:25:52;1.80;99.90
51839;DHT22;37886;53.174;6.368;2022-11-20T17:28:20;1.80;99.90
51839;DHT22;37886;53.174;6.368;2022-11-20T17:30:46;1.80;99.90
51839;DHT22;37886;53.174;6.368;2022-11-20T17:33:12;1.80;99.90
51839;DHT22;37886;53.174;6.368;2022-11-20T17:35:37;1.70;99.90
51839;DHT22;37886;53.174;6.368;2022-11-20T17:38:03;1.80;99.90
51839;DHT22;37886;53.174;6.368;2022-11-20T17:40:30;1.80;99.90
51839;DHT22;37886;53.174;6.368;2022-11-20T17:42:55;1.80;99.90